Del Norte — WDC2280 — position and weather

sailwx.info

Track history (hours):
 
Tides and Currents Weather Stations Pressure Air Temp Water Temp Dewpoint Dewpoint Depression Visibility Wind Speed Wind Dir Waves Ship Positions

Del Norte

Owner: Golden Gate Bridge,Hwy & Transportation District, Larkspur, CA. More information available from US FCC via Universal Licensing System and Coast Guard Vessel Documentation Center.

Last reported at 2016-Apr-30 03:31 UTC. Time now 2016-May-01 02:22 UTC.
Position N 37°57' W 122°30'.

Length 48 m.

Type: High speed craft. MMSI: 366990520.

Date/timePositionNaut miles runAvg speedWind from/ knotsBaromVisibWave heightAir tempDewpointWater temp
2016-Apr-30 03:31N 37°57' W 122°30'7 7.1
2016-Apr-30 02:33N 37°52' W 122°24'7 6.8
2016-Apr-30 01:33N 37°57' W 122°30'6 5.5
2016-Apr-30 00:33N 37°53' W 122°26'5 5.2
2016-Apr-29 23:33N 37°48' W 122°24'1010.5
2016-Apr-29 22:34N 37°57' W 122°30'5 5.5
2016-Apr-29 21:33N 37°53' W 122°26'5 5.4
2016-Apr-29 20:33N 37°57' W 122°30'8 8.4
2016-Apr-29 19:33N 37°50' W 122°24'8 8.3
2016-Apr-29 18:33N 37°57' W 122°30'0 0.1
2016-Apr-29 17:34N 37°57' W 122°31'1110.4
2016-Apr-29 16:33N 37°48' W 122°24'9 9.1
2016-Apr-29 15:33N 37°56' W 122°28'2 0.1
2016-Apr-29 00:26N 37°57' W 122°30'1012.0
2016-Apr-28 23:33N 37°48' W 122°23'1010.4
2016-Apr-28 22:33N 37°57' W 122°30'5 4.9
2016-Apr-28 21:33N 37°53' W 122°26'5 4.9
2016-Apr-28 20:33N 37°57' W 122°30'9 8.7
2016-Apr-28 19:34N 37°50' W 122°24'9 8.7
2016-Apr-28 18:33N 37°57' W 122°30'7 7.2
2016-Apr-28 17:34N 37°51' W 122°25'5 5.3
2016-Apr-28 16:33N 37°56' W 122°28'1 1.2
2016-Apr-28 15:33N 37°55' W 122°27'7 7.4
2016-Apr-28 14:33N 37°48' W 122°24'3 3.0
2016-Apr-28 13:34N 37°51' W 122°24'8 7.8
2016-Apr-28 12:33N 37°57' W 122°31'6 0.6
2016-Apr-28 02:33N 37°52' W 122°25'6 6.4
2016-Apr-28 01:33N 37°57' W 122°30'7 7.2
2016-Apr-28 00:34N 37°51' W 122°25'3 3.5
2016-Apr-27 23:34N 37°48' W 122°24'1010.4
2016-Apr-27 22:33N 37°57' W 122°30'6 5.6
2016-Apr-27 21:33N 37°53' W 122°26'6 4.6
2016-Apr-27 20:20N 37°57' W 122°31'911.6
2016-Apr-27 19:34N 37°50' W 122°24'9 8.9
2016-Apr-27 18:33N 37°57' W 122°30'7 7.4
2016-Apr-27 17:33N 37°51' W 122°24'6 6.0
2016-Apr-27 16:33N 37°56' W 122°29'1 1.3
2016-Apr-27 15:33N 37°55' W 122°27'8 8.0
2016-Apr-27 14:33N 37°48' W 122°24'4 3.6
2016-Apr-27 13:34N 37°51' W 122°24'7 7.2
2016-Apr-27 12:33N 37°57' W 122°31'0 0.0
2016-Apr-27 03:05N 37°57' W 122°31'713.5
2016-Apr-27 02:33N 37°52' W 122°24'7 6.9
2016-Apr-27 01:33N 37°57' W 122°30'6 6.6
2016-Apr-27 00:33N 37°52' W 122°25'4 4.2
2016-Apr-26 23:33N 37°48' W 122°23'1010.4
2016-Apr-26 22:33N 37°57' W 122°30'4 3.9
2016-Apr-26 21:33N 37°54' W 122°27'4 4.0
2016-Apr-26 20:33N 37°57' W 122°31'9 8.6
2016-Apr-26 19:34N 37°50' W 122°24'9 8.5
2016-Apr-26 18:33N 37°57' W 122°30'7 7.5
2016-Apr-26 17:33N 37°51' W 122°24'5 5.3
2016-Apr-26 16:33N 37°56' W 122°28'1 0.5
2016-Apr-26 15:33N 37°55' W 122°28'8 8.0
2016-Apr-26 14:34N 37°48' W 122°24'3 3.5
2016-Apr-26 13:33N 37°51' W 122°24'7 7.4
2016-Apr-26 12:33N 37°57' W 122°31'6 0.6
2016-Apr-26 02:33N 37°52' W 122°25'6 6.2
2016-Apr-26 01:33N 37°57' W 122°31'8 7.8
2016-Apr-26 00:34N 37°51' W 122°24'2 2.5
2016-Apr-25 23:33N 37°48' W 122°23'1010.1
2016-Apr-25 22:33N 37°57' W 122°30'5 5.1
2016-Apr-25 21:33N 37°53' W 122°26'5 5.1
2016-Apr-25 20:33N 37°57' W 122°31'9 9.0
2016-Apr-25 19:34N 37°50' W 122°24'9 8.9
2016-Apr-25 18:33N 37°57' W 122°30'7 7.0
2016-Apr-25 17:34N 37°51' W 122°25'4 4.3
2016-Apr-25 16:33N 37°55' W 122°27'0 0.4
2016-Apr-25 15:34N 37°55' W 122°28'8 8.3
2016-Apr-25 14:34N 37°48' W 122°24'3 3.1
2016-Apr-25 13:33N 37°51' W 122°24'8 7.6
2016-Apr-25 12:32N 37°57' W 122°31'  
2016-Apr-23 02:33N 37°52' W 122°25'7 6.5
2016-Apr-23 01:33N 37°57' W 122°30'5 5.4
2016-Apr-23 00:34N 37°53' W 122°26'5 5.4
2016-Apr-22 23:33N 37°48' W 122°24'1010.5
2016-Apr-22 22:33N 37°57' W 122°30'5 5.2
2016-Apr-22 21:34N 37°53' W 122°26'5 5.3
2016-Apr-22 20:33N 37°57' W 122°31'9 8.6
2016-Apr-22 19:34N 37°50' W 122°23'8 8.4
2016-Apr-22 18:33N 37°57' W 122°30'8 8.5
2016-Apr-22 17:34N 37°50' W 122°24'7 7.1
2016-Apr-22 16:33N 37°56' W 122°29'1 1.3
2016-Apr-22 15:33N 37°55' W 122°28'8 8.0
2016-Apr-22 14:33N 37°48' W 122°24'3 3.5
2016-Apr-22 13:34N 37°51' W 122°24'7 7.3
2016-Apr-22 12:32N 37°57' W 122°31'7 0.7
2016-Apr-22 02:33N 37°52' W 122°24'7 7.1
2016-Apr-22 01:33N 37°57' W 122°30'6 6.2
2016-Apr-22 00:34N 37°52' W 122°25'5 4.7
2016-Apr-21 23:33N 37°48' W 122°24'1010.4
2016-Apr-21 22:33N 37°57' W 122°30'5 5.0
2016-Apr-21 21:33N 37°53' W 122°26'5 5.0
2016-Apr-21 20:33N 37°57' W 122°30'10 9.7
2016-Apr-21 19:34N 37°49' W 122°23'10 9.3
2016-Apr-21 18:32N 37°57' W 122°30'7 7.3
2016-Apr-21 17:33N 37°51' W 122°25'5 5.5
2016-Apr-21 16:33N 37°56' W 122°28'1 0.7
2016-Apr-21 15:33N 37°55' W 122°28'8 8.3
2016-Apr-21 14:33N 37°48' W 122°24'4 4.4
2016-Apr-21 13:34N 37°52' W 122°24'7 5.9
2016-Apr-21 12:26N 37°57' W 122°31'7 0.7
2016-Apr-21 02:34N 37°52' W 122°24'7 6.7
2016-Apr-21 01:33N 37°57' W 122°30'6 6.3
2016-Apr-21 00:34N 37°52' W 122°25'4 4.4
2016-Apr-20 23:33N 37°48' W 122°24'1010.3
2016-Apr-20 22:33N 37°57' W 122°30'5 4.8
2016-Apr-20 21:33N 37°53' W 122°26'5 4.9
2016-Apr-20 20:33N 37°57' W 122°31'8 8.4
2016-Apr-20 19:34N 37°50' W 122°24'8 8.2
2016-Apr-20 18:33N 37°57' W 122°30'6 6.6
2016-Apr-20 17:34N 37°52' W 122°25'5 5.0
2016-Apr-20 16:33N 37°56' W 122°29'1 1.1
2016-Apr-20 15:33N 37°55' W 122°28'8 8.1
2016-Apr-20 14:34N 37°48' W 122°24'4 4.0
2016-Apr-20 13:34N 37°52' W 122°24'7 6.8
2016-Apr-20 12:33N 37°57' W 122°31'  
Track history (hours):
 
Tides and Currents Weather Stations Pressure Air Temp Water Temp Dewpoint Dewpoint Depression Visibility Wind Speed Wind Dir Waves Ship Positions

Del Norte

Owner: Golden Gate Bridge,Hwy & Transportation District, Larkspur, CA. More information available from US FCC via Universal Licensing System and Coast Guard Vessel Documentation Center.

Last reported at 2016-Apr-30 03:31 UTC. Time now 2016-May-01 02:22 UTC.
Position N 37°57' W 122°30'.

Length 48 m.

Type: High speed craft. MMSI: 366990520.

Date/timePositionNaut miles runAvg speedWind from/ knotsBaromVisibWave heightAir tempDewpointWater temp
2016-Apr-30 03:31N 37°57' W 122°30'7 7.1
2016-Apr-30 02:33N 37°52' W 122°24'7 6.8
2016-Apr-30 01:33N 37°57' W 122°30'6 5.5
2016-Apr-30 00:33N 37°53' W 122°26'5 5.2
2016-Apr-29 23:33N 37°48' W 122°24'1010.5
2016-Apr-29 22:34N 37°57' W 122°30'5 5.5
2016-Apr-29 21:33N 37°53' W 122°26'5 5.4
2016-Apr-29 20:33N 37°57' W 122°30'8 8.4
2016-Apr-29 19:33N 37°50' W 122°24'8 8.3
2016-Apr-29 18:33N 37°57' W 122°30'0 0.1
2016-Apr-29 17:34N 37°57' W 122°31'1110.4
2016-Apr-29 16:33N 37°48' W 122°24'9 9.1
2016-Apr-29 15:33N 37°56' W 122°28'2 0.1
2016-Apr-29 00:26N 37°57' W 122°30'1012.0
2016-Apr-28 23:33N 37°48' W 122°23'1010.4
2016-Apr-28 22:33N 37°57' W 122°30'5 4.9
2016-Apr-28 21:33N 37°53' W 122°26'5 4.9
2016-Apr-28 20:33N 37°57' W 122°30'9 8.7
2016-Apr-28 19:34N 37°50' W 122°24'9 8.7
2016-Apr-28 18:33N 37°57' W 122°30'7 7.2
2016-Apr-28 17:34N 37°51' W 122°25'5 5.3
2016-Apr-28 16:33N 37°56' W 122°28'1 1.2
2016-Apr-28 15:33N 37°55' W 122°27'7 7.4
2016-Apr-28 14:33N 37°48' W 122°24'3 3.0
2016-Apr-28 13:34N 37°51' W 122°24'8 7.8
2016-Apr-28 12:33N 37°57' W 122°31'6 0.6
2016-Apr-28 02:33N 37°52' W 122°25'6 6.4
2016-Apr-28 01:33N 37°57' W 122°30'7 7.2
2016-Apr-28 00:34N 37°51' W 122°25'3 3.5
2016-Apr-27 23:34N 37°48' W 122°24'1010.4
2016-Apr-27 22:33N 37°57' W 122°30'6 5.6
2016-Apr-27 21:33N 37°53' W 122°26'6 4.6
2016-Apr-27 20:20N 37°57' W 122°31'911.6
2016-Apr-27 19:34N 37°50' W 122°24'9 8.9
2016-Apr-27 18:33N 37°57' W 122°30'7 7.4
2016-Apr-27 17:33N 37°51' W 122°24'6 6.0
2016-Apr-27 16:33N 37°56' W 122°29'1 1.3
2016-Apr-27 15:33N 37°55' W 122°27'8 8.0
2016-Apr-27 14:33N 37°48' W 122°24'4 3.6
2016-Apr-27 13:34N 37°51' W 122°24'7 7.2
2016-Apr-27 12:33N 37°57' W 122°31'0 0.0
2016-Apr-27 03:05N 37°57' W 122°31'713.5
2016-Apr-27 02:33N 37°52' W 122°24'7 6.9
2016-Apr-27 01:33N 37°57' W 122°30'6 6.6
2016-Apr-27 00:33N 37°52' W 122°25'4 4.2
2016-Apr-26 23:33N 37°48' W 122°23'1010.4
2016-Apr-26 22:33N 37°57' W 122°30'4 3.9
2016-Apr-26 21:33N 37°54' W 122°27'4 4.0
2016-Apr-26 20:33N 37°57' W 122°31'9 8.6
2016-Apr-26 19:34N 37°50' W 122°24'9 8.5
2016-Apr-26 18:33N 37°57' W 122°30'7 7.5
2016-Apr-26 17:33N 37°51' W 122°24'5 5.3
2016-Apr-26 16:33N 37°56' W 122°28'1 0.5
2016-Apr-26 15:33N 37°55' W 122°28'8 8.0
2016-Apr-26 14:34N 37°48' W 122°24'3 3.5
2016-Apr-26 13:33N 37°51' W 122°24'7 7.4
2016-Apr-26 12:33N 37°57' W 122°31'6 0.6
2016-Apr-26 02:33N 37°52' W 122°25'6 6.2
2016-Apr-26 01:33N 37°57' W 122°31'8 7.8
2016-Apr-26 00:34N 37°51' W 122°24'2 2.5
2016-Apr-25 23:33N 37°48' W 122°23'1010.1
2016-Apr-25 22:33N 37°57' W 122°30'5 5.1
2016-Apr-25 21:33N 37°53' W 122°26'5 5.1
2016-Apr-25 20:33N 37°57' W 122°31'9 9.0
2016-Apr-25 19:34N 37°50' W 122°24'9 8.9
2016-Apr-25 18:33N 37°57' W 122°30'7 7.0
2016-Apr-25 17:34N 37°51' W 122°25'4 4.3
2016-Apr-25 16:33N 37°55' W 122°27'0 0.4
2016-Apr-25 15:34N 37°55' W 122°28'8 8.3
2016-Apr-25 14:34N 37°48' W 122°24'3 3.1
2016-Apr-25 13:33N 37°51' W 122°24'8 7.6
2016-Apr-25 12:32N 37°57' W 122°31'  
2016-Apr-23 02:33N 37°52' W 122°25'7 6.5
2016-Apr-23 01:33N 37°57' W 122°30'5 5.4
2016-Apr-23 00:34N 37°53' W 122°26'5 5.4
2016-Apr-22 23:33N 37°48' W 122°24'1010.5
2016-Apr-22 22:33N 37°57' W 122°30'5 5.2
2016-Apr-22 21:34N 37°53' W 122°26'5 5.3
2016-Apr-22 20:33N 37°57' W 122°31'9 8.6
2016-Apr-22 19:34N 37°50' W 122°23'8 8.4
2016-Apr-22 18:33N 37°57' W 122°30'8 8.5
2016-Apr-22 17:34N 37°50' W 122°24'7 7.1
2016-Apr-22 16:33N 37°56' W 122°29'1 1.3
2016-Apr-22 15:33N 37°55' W 122°28'8 8.0
2016-Apr-22 14:33N 37°48' W 122°24'3 3.5
2016-Apr-22 13:34N 37°51' W 122°24'7 7.3
2016-Apr-22 12:32N 37°57' W 122°31'7 0.7
2016-Apr-22 02:33N 37°52' W 122°24'7 7.1
2016-Apr-22 01:33N 37°57' W 122°30'6 6.2
2016-Apr-22 00:34N 37°52' W 122°25'5 4.7
2016-Apr-21 23:33N 37°48' W 122°24'1010.4
2016-Apr-21 22:33N 37°57' W 122°30'5 5.0
2016-Apr-21 21:33N 37°53' W 122°26'5 5.0
2016-Apr-21 20:33N 37°57' W 122°30'10 9.7
2016-Apr-21 19:34N 37°49' W 122°23'10 9.3
2016-Apr-21 18:32N 37°57' W 122°30'7 7.3
2016-Apr-21 17:33N 37°51' W 122°25'5 5.5
2016-Apr-21 16:33N 37°56' W 122°28'1 0.7
2016-Apr-21 15:33N 37°55' W 122°28'8 8.3
2016-Apr-21 14:33N 37°48' W 122°24'4 4.4
2016-Apr-21 13:34N 37°52' W 122°24'7 5.9
2016-Apr-21 12:26N 37°57' W 122°31'7 0.7
2016-Apr-21 02:34N 37°52' W 122°24'7 6.7
2016-Apr-21 01:33N 37°57' W 122°30'6 6.3
2016-Apr-21 00:34N 37°52' W 122°25'4 4.4
2016-Apr-20 23:33N 37°48' W 122°24'1010.3
2016-Apr-20 22:33N 37°57' W 122°30'5 4.8
2016-Apr-20 21:33N 37°53' W 122°26'5 4.9
2016-Apr-20 20:33N 37°57' W 122°31'8 8.4
2016-Apr-20 19:34N 37°50' W 122°24'8 8.2
2016-Apr-20 18:33N 37°57' W 122°30'6 6.6
2016-Apr-20 17:34N 37°52' W 122°25'5 5.0
2016-Apr-20 16:33N 37°56' W 122°29'1 1.1
2016-Apr-20 15:33N 37°55' W 122°28'8 8.1
2016-Apr-20 14:34N 37°48' W 122°24'4 4.0
2016-Apr-20 13:34N 37°52' W 122°24'7 6.8
2016-Apr-20 12:33N 37°57' W 122°31'  

Dump ship's entire track history